createdAt,value
2022-09-05T00:00:49.837Z,5.3
2022-09-05T00:02:49.995Z,5.7
2022-09-05T00:04:50.376Z,5.3
2022-09-05T00:06:49.730Z,5.2
2022-09-05T00:08:50.085Z,5.5
2022-09-05T00:10:53.494Z,5.5
2022-09-05T00:12:50.740Z,5.4
2022-09-05T00:15:15.778Z,5.8
2022-09-05T00:16:50.045Z,5.5
2022-09-05T00:20:04.368Z,5.5
2022-09-05T00:24:17.913Z,6.0
2022-09-05T00:24:33.483Z,5.9
2022-09-05T00:25:07.147Z,6.2
2022-09-05T00:26:50.692Z,6.6
2022-09-05T00:28:50.287Z,6.1
2022-09-05T00:31:08.411Z,6.1
2022-09-05T00:32:50.317Z,6.1
2022-09-05T00:34:49.699Z,6.4
2022-09-05T00:36:50.247Z,6.4
2022-09-05T00:38:50.391Z,6.5
2022-09-05T00:40:50.435Z,6.0
2022-09-05T00:42:50.498Z,6.1
2022-09-05T00:44:50.435Z,6.8
2022-09-05T00:46:49.982Z,6.2
2022-09-05T00:48:50.531Z,6.2
2022-09-05T00:50:49.835Z,6.6
2022-09-05T00:52:50.468Z,6.4
2022-09-05T00:54:50.382Z,6.0
2022-09-05T00:56:49.887Z,6.0
2022-09-05T00:58:50.140Z,5.7
2022-09-05T01:00:49.585Z,5.8
2022-09-05T01:02:51.331Z,5.8
2022-09-05T01:04:50.528Z,6.1
2022-09-05T01:06:50.107Z,6.3
2022-09-05T01:08:50.344Z,6.3
2022-09-05T01:10:49.792Z,6.0
2022-09-05T01:12:52.918Z,6.0
2022-09-05T01:14:50.209Z,6.1
2022-09-05T01:16:50.018Z,5.8
2022-09-05T01:18:50.224Z,5.8
2022-09-05T01:20:50.081Z,5.5
2022-09-05T01:22:50.075Z,5.1
2022-09-05T01:24:50.090Z,5.3
2022-09-05T01:26:49.661Z,5.3
2022-09-05T01:29:14.712Z,5.6
2022-09-05T01:30:49.681Z,5.1
2022-09-05T01:32:50.021Z,5.5
2022-09-05T01:34:50.518Z,5.5
2022-09-05T01:36:50.227Z,5.3
2022-09-05T01:39:07.294Z,5.6
2022-09-05T01:40:56.682Z,5.9
2022-09-05T01:42:50.404Z,5.5
2022-09-05T01:44:50.558Z,5.5
2022-09-05T01:46:50.227Z,5.4
2022-09-05T01:48:50.256Z,5.5
2022-09-05T01:50:50.247Z,5.3
2022-09-05T01:52:57.390Z,5.2
2022-09-05T01:54:50.399Z,5.2
2022-09-05T01:56:50.255Z,5.3
2022-09-05T01:58:50.368Z,5.7
2022-09-05T02:00:50.389Z,5.5
2022-09-05T02:02:50.561Z,5.7
2022-09-05T02:04:49.765Z,5.7
2022-09-05T02:06:50.008Z,5.9
2022-09-05T02:08:50.375Z,5.6
2022-09-05T02:10:49.617Z,5.8
2022-09-05T02:12:54.576Z,5.8
2022-09-05T02:14:50.347Z,5.8
2022-09-05T02:16:49.665Z,6.0
2022-09-05T02:18:49.955Z,6.1
2022-09-05T02:20:50.238Z,5.7
2022-09-05T02:22:50.452Z,5.7
2022-09-05T02:24:49.594Z,5.6
2022-09-05T02:26:50.409Z,6.5
2022-09-05T02:28:49.655Z,6.4
2022-09-05T02:30:51.761Z,6.4
2022-09-05T02:32:49.855Z,6.3
2022-09-05T02:34:50.465Z,6.3
2022-09-05T02:36:49.870Z,6.3
2022-09-05T02:38:58.132Z,6.3
2022-09-05T02:45:04.786Z,5.9
2022-09-05T02:45:05.235Z,6.5
2022-09-05T02:45:05.321Z,6.5
2022-09-05T02:46:50.862Z,5.9
2022-09-05T02:48:49.752Z,6.5
2022-09-05T02:52:38.163Z,6.5
2022-09-05T02:57:22.987Z,6.4
2022-09-05T02:57:31.424Z,5.8
2022-09-05T02:57:47.797Z,6.3
2022-09-05T02:59:08.968Z,6.2
2022-09-05T03:00:51.056Z,6.2
2022-09-05T03:02:50.274Z,6.4
2022-09-05T03:04:50.340Z,5.9
2022-09-05T03:06:50.221Z,6.8
2022-09-05T03:08:50.318Z,6.5
2022-09-05T03:10:54.047Z,6.5
2022-09-05T03:12:50.232Z,6.6
2022-09-05T03:14:50.269Z,6.6
2022-09-05T03:16:49.865Z,6.5
2022-09-05T03:18:50.004Z,6.5
2022-09-05T03:20:50.254Z,6.6
2022-09-05T03:22:50.282Z,6.5
2022-09-05T03:24:55.737Z,6.3
2022-09-05T03:26:50.294Z,7.3
2022-09-05T03:28:50.390Z,7.3
2022-09-05T03:30:50.569Z,7.3
2022-09-05T03:32:50.047Z,7.2
2022-09-05T03:34:49.977Z,7.1
2022-09-05T03:36:50.399Z,7.3
2022-09-05T03:38:50.474Z,6.8
2022-09-05T03:40:50.457Z,6.8
2022-09-05T03:42:50.426Z,6.6
2022-09-05T03:44:50.424Z,6.8
2022-09-05T03:46:49.922Z,6.5
2022-09-05T03:48:50.257Z,6.4
2022-09-05T03:52:28.796Z,6.6
2022-09-05T03:55:48.115Z,6.6
2022-09-05T03:57:09.462Z,6.8
2022-09-05T03:57:21.475Z,7.0
2022-09-05T03:58:57.000Z,6.7
2022-09-05T04:00:52.772Z,6.7
2022-09-05T04:07:03.568Z,6.7
2022-09-05T04:08:11.994Z,6.5
2022-09-05T04:08:12.743Z,6.8
2022-09-05T04:08:50.290Z,6.6
2022-09-05T04:10:49.628Z,6.6
2022-09-05T04:12:50.335Z,6.7
2022-09-05T04:14:49.627Z,6.6
2022-09-05T04:16:50.061Z,6.6
2022-09-05T04:18:49.645Z,6.6
2022-09-05T04:20:49.646Z,6.4
2022-09-05T04:22:49.927Z,6.5
2022-09-05T04:24:50.046Z,6.8
2022-09-05T04:26:50.339Z,6.9
2022-09-05T04:28:53.508Z,6.9
2022-09-05T04:30:50.044Z,7.1
2022-09-05T04:32:54.156Z,6.7
2022-09-05T04:34:51.145Z,7.2
2022-09-05T04:36:49.751Z,7.2
2022-09-05T04:38:49.723Z,7.6
2022-09-05T04:40:50.137Z,7.2
2022-09-05T04:42:50.101Z,7.3
2022-09-05T04:44:50.046Z,7.6
2022-09-05T04:46:49.694Z,7.1
2022-09-05T04:48:50.365Z,7.1
2022-09-05T04:50:50.033Z,7.2
2022-09-05T04:52:50.102Z,7.2
2022-09-05T04:54:50.111Z,7.2
2022-09-05T04:56:49.651Z,7.0
2022-09-05T04:59:34.308Z,7.0
2022-09-05T05:04:50.771Z,8.0
2022-09-05T05:06:07.336Z,10.1
2022-09-05T05:06:07.599Z,6.9
2022-09-05T05:06:49.767Z,10.1
2022-09-05T05:08:49.857Z,9.2
2022-09-05T05:11:39.945Z,6.9
2022-09-05T05:17:26.884Z,6.3
2022-09-05T05:18:04.334Z,6.6
2022-09-05T05:18:06.007Z,6.6
2022-09-05T05:20:49.643Z,6.4
2022-09-05T05:22:50.715Z,6.1
2022-09-05T05:24:50.029Z,7.5
2022-09-05T05:26:56.945Z,7.5
2022-09-05T05:28:50.269Z,6.5
2022-09-05T05:30:50.487Z,6.6
2022-09-05T05:32:50.170Z,6.8
2022-09-05T05:34:49.916Z,6.0
2022-09-05T05:36:50.215Z,6.0
2022-09-05T05:38:50.342Z,18.7
2022-09-05T05:40:51.026Z,13.9
2022-09-05T05:42:49.663Z,5.9
2022-09-05T05:44:49.947Z,5.8
2022-09-05T05:46:50.200Z,5.8
2022-09-05T05:48:53.799Z,6.8
2022-09-05T05:50:49.617Z,5.9
2022-09-05T05:52:50.441Z,5.5
2022-09-05T05:54:50.458Z,5.5
2022-09-05T05:56:49.641Z,6.7
2022-09-05T05:58:49.847Z,6.7
2022-09-05T06:00:51.530Z,7.8
2022-09-05T06:03:24.988Z,6.5
2022-09-05T06:04:50.353Z,5.9
2022-09-05T06:06:50.536Z,5.9
2022-09-05T06:09:51.382Z,5.0
2022-09-05T06:13:14.634Z,4.6
2022-09-05T06:14:54.612Z,4.6
2022-09-05T06:15:08.472Z,3.9
2022-09-05T06:16:49.999Z,3.7
2022-09-05T06:18:50.497Z,3.1
2022-09-05T06:21:51.129Z,3.4
2022-09-05T06:22:50.412Z,3.4
2022-09-05T06:24:49.870Z,3.6
2022-09-05T06:26:50.205Z,3.7
2022-09-05T06:28:50.263Z,6.4
2022-09-05T06:30:50.361Z,3.0
2022-09-05T06:32:55.321Z,3.0
2022-09-05T06:34:50.198Z,2.9
2022-09-05T06:36:49.811Z,3.6
2022-09-05T06:38:49.863Z,2.9
2022-09-05T06:40:49.888Z,2.9
2022-09-05T06:42:50.159Z,3.2
2022-09-05T06:44:49.654Z,3.2
2022-09-05T06:46:55.501Z,2.9
2022-09-05T06:48:58.635Z,2.7
2022-09-05T06:51:02.102Z,2.7
2022-09-05T06:52:49.831Z,3.4
2022-09-05T06:54:59.393Z,3.4
2022-09-05T06:56:50.422Z,3.1
2022-09-05T06:58:50.531Z,2.8
2022-09-05T07:00:49.654Z,2.8
2022-09-05T07:02:58.623Z,2.5
2022-09-05T07:05:24.260Z,2.5
2022-09-05T07:07:01.415Z,2.7
2022-09-05T07:08:49.572Z,2.7
2022-09-05T07:10:49.676Z,2.5
2022-09-05T07:12:49.656Z,2.5
2022-09-05T07:14:49.598Z,2.5
2022-09-05T07:16:49.827Z,2.9
2022-09-05T07:18:49.966Z,2.4
2022-09-05T07:21:12.346Z,3.3
2022-09-05T07:22:49.711Z,3.3
2022-09-05T07:24:53.908Z,2.5
2022-09-05T07:26:52.426Z,2.6
2022-09-05T07:28:50.287Z,2.6
2022-09-05T07:30:49.688Z,2.5
2022-09-05T07:32:49.642Z,2.5
2022-09-05T07:34:49.931Z,2.2
2022-09-05T07:36:50.300Z,2.5
2022-09-05T07:38:58.758Z,2.7
2022-09-05T07:40:50.179Z,2.7
2022-09-05T07:42:51.341Z,2.5
2022-09-05T07:44:50.001Z,2.3
2022-09-05T07:46:50.228Z,2.4
2022-09-05T07:48:50.060Z,3.1
2022-09-05T07:52:23.558Z,3.1
2022-09-05T07:56:48.256Z,2.5
2022-09-05T07:56:57.078Z,2.3
2022-09-05T07:58:50.620Z,2.3
2022-09-05T08:00:49.646Z,2.3
2022-09-05T08:02:54.139Z,2.3
2022-09-05T08:04:50.628Z,2.4
2022-09-05T08:07:25.732Z,2.3
2022-09-05T08:09:05.776Z,2.3
2022-09-05T08:11:22.932Z,2.6
2022-09-05T08:13:22.289Z,2.6
2022-09-05T08:14:50.138Z,2.6
2022-09-05T08:16:50.413Z,2.4
2022-09-05T08:18:49.782Z,2.1
2022-09-05T08:20:50.429Z,2.2
2022-09-05T08:22:52.422Z,2.4
2022-09-05T08:24:49.837Z,2.6
2022-09-05T08:26:50.048Z,2.6
2022-09-05T08:28:50.217Z,2.2
2022-09-05T08:30:50.157Z,2.2
2022-09-05T08:32:50.315Z,2.0
2022-09-05T08:34:50.448Z,1.9
2022-09-05T08:36:50.503Z,1.9
2022-09-05T08:38:49.747Z,1.8
2022-09-05T08:40:49.668Z,2.7
2022-09-05T08:43:00.432Z,1.7
2022-09-05T08:46:38.740Z,2.1
2022-09-05T08:46:50.250Z,3.7
2022-09-05T08:48:50.515Z,3.7
2022-09-05T08:50:50.226Z,2.2
2022-09-05T08:52:50.253Z,2.3
2022-09-05T08:54:52.128Z,1.9
2022-09-05T08:56:49.885Z,2.9
2022-09-05T08:58:49.754Z,2.9
2022-09-05T09:00:50.473Z,2.1
2022-09-05T09:02:49.958Z,2.3
2022-09-05T09:05:02.005Z,2.3
2022-09-05T09:06:57.930Z,1.9
2022-09-05T09:08:49.709Z,1.8
2022-09-05T09:10:49.657Z,2.4
2022-09-05T09:12:50.531Z,2.0
2022-09-05T09:14:50.439Z,2.0
2022-09-05T09:16:49.611Z,2.5
2022-09-05T09:18:50.292Z,2.5
2022-09-05T09:20:50.311Z,1.9
2022-09-05T09:22:50.351Z,1.9
2022-09-05T09:25:08.291Z,1.9
2022-09-05T09:26:50.156Z,1.9
2022-09-05T09:28:51.554Z,1.7
2022-09-05T09:30:50.187Z,2.0
2022-09-05T09:32:49.816Z,2.1
2022-09-05T09:34:50.319Z,2.1
2022-09-05T09:36:49.954Z,1.7
2022-09-05T09:38:49.906Z,1.7
2022-09-05T09:40:50.154Z,1.7
2022-09-05T09:42:49.628Z,1.9
2022-09-05T09:44:50.624Z,1.9
2022-09-05T09:46:50.342Z,1.9
2022-09-05T09:48:51.569Z,2.6
2022-09-05T09:50:58.300Z,2.1
2022-09-05T09:52:49.650Z,2.1
2022-09-05T09:54:50.931Z,1.7
2022-09-05T09:56:50.010Z,1.7
2022-09-05T09:58:49.887Z,2.3
2022-09-05T10:00:49.698Z,2.8
2022-09-05T10:04:31.143Z,1.8
2022-09-05T10:08:12.282Z,1.8
2022-09-05T10:10:37.249Z,1.9
2022-09-05T10:10:41.074Z,1.9
2022-09-05T10:12:52.016Z,1.7
2022-09-05T10:14:50.939Z,1.7
2022-09-05T10:16:50.452Z,1.4
2022-09-05T10:18:49.644Z,1.4
2022-09-05T10:20:56.930Z,1.3
2022-09-05T10:22:49.632Z,1.3
2022-09-05T10:24:51.082Z,1.5
2022-09-05T10:26:50.229Z,1.9
2022-09-05T10:28:49.943Z,1.5
2022-09-05T10:31:10.023Z,1.6
2022-09-05T10:34:00.726Z,1.9
2022-09-05T10:35:05.616Z,1.9
2022-09-05T10:36:52.156Z,1.8
2022-09-05T10:38:50.385Z,1.7
2022-09-05T10:41:14.713Z,1.7
2022-09-05T10:43:00.323Z,1.8
2022-09-05T10:44:50.320Z,1.8
2022-09-05T10:46:51.424Z,1.7
2022-09-05T10:48:53.044Z,1.4
2022-09-05T10:50:50.455Z,1.4
2022-09-05T10:52:50.285Z,1.6
2022-09-05T10:54:50.218Z,1.6
2022-09-05T10:56:50.387Z,1.8
2022-09-05T10:59:36.476Z,3.7
2022-09-05T11:01:34.839Z,1.8
2022-09-05T11:02:52.566Z,1.8
2022-09-05T11:04:50.300Z,1.7
2022-09-05T11:06:50.016Z,1.6
2022-09-05T11:08:49.831Z,1.8
2022-09-05T11:10:49.715Z,1.9
2022-09-05T11:12:50.395Z,1.9
2022-09-05T11:14:49.831Z,1.8
2022-09-05T11:16:50.217Z,1.7
2022-09-05T11:18:54.762Z,1.7
2022-09-05T11:20:49.571Z,1.9
2022-09-05T11:22:50.476Z,1.9
2022-09-05T11:24:50.352Z,1.5
2022-09-05T11:26:51.407Z,1.6
2022-09-05T11:28:57.513Z,1.7
2022-09-05T11:30:49.681Z,1.7
2022-09-05T11:35:39.239Z,1.7
2022-09-05T11:37:35.863Z,1.5
2022-09-05T11:39:49.930Z,1.7
2022-09-05T11:40:01.210Z,2.7
2022-09-05T11:41:01.305Z,1.7
2022-09-05T11:42:49.613Z,1.3
2022-09-05T11:44:50.499Z,1.5
2022-09-05T11:46:50.373Z,1.7
2022-09-05T11:48:53.090Z,1.7
2022-09-05T11:50:49.725Z,1.7
2022-09-05T11:52:49.711Z,1.9
2022-09-05T11:54:50.044Z,1.4
2022-09-05T11:56:50.232Z,1.7
2022-09-05T11:58:50.444Z,1.7
2022-09-05T12:00:49.857Z,1.6
2022-09-05T12:02:49.854Z,1.6
2022-09-05T12:05:47.867Z,1.6
2022-09-05T12:06:49.963Z,1.6
2022-09-05T12:08:50.008Z,1.6
2022-09-05T12:10:50.406Z,2.1
2022-09-05T12:12:49.917Z,2.0
2022-09-05T12:14:54.849Z,1.9
2022-09-05T12:16:50.088Z,1.9
2022-09-05T12:18:50.366Z,1.9
2022-09-05T12:20:50.028Z,1.9
2022-09-05T12:22:50.062Z,2.8
2022-09-05T12:25:17.974Z,1.7
2022-09-05T12:27:43.477Z,1.7
2022-09-05T12:29:28.548Z,2.0
2022-09-05T12:31:00.462Z,2.0
2022-09-05T12:33:32.285Z,1.7
2022-09-05T12:36:09.016Z,1.6
2022-09-05T12:38:44.683Z,1.6
2022-09-05T12:40:21.449Z,1.6
2022-09-05T12:41:39.863Z,1.6
2022-09-05T12:42:54.545Z,1.2
2022-09-05T12:44:50.297Z,1.2
2022-09-05T12:46:50.440Z,1.9
2022-09-05T12:48:49.643Z,1.9
2022-09-05T12:50:49.640Z,1.5
2022-09-05T12:52:49.575Z,4.0
2022-09-05T12:54:51.725Z,1.4
2022-09-05T12:59:48.190Z,1.4
2022-09-05T13:03:00.090Z,1.5
2022-09-05T13:03:00.312Z,1.5
2022-09-05T13:03:00.587Z,3.1
2022-09-05T13:04:51.321Z,1.2
2022-09-05T13:06:49.921Z,1.2
2022-09-05T13:08:58.959Z,3.1
2022-09-05T13:11:44.109Z,1.1
2022-09-05T13:14:51.107Z,1.5
2022-09-05T13:15:05.616Z,1.5
2022-09-05T13:16:50.214Z,1.2
2022-09-05T13:18:50.328Z,1.2
2022-09-05T13:20:50.175Z,1.3
2022-09-05T13:22:49.991Z,1.3
2022-09-05T13:24:49.879Z,1.3
2022-09-05T13:26:49.976Z,1.2
2022-09-05T13:28:49.819Z,1.2
2022-09-05T13:31:51.083Z,1.1
2022-09-05T13:37:39.555Z,1.1
2022-09-05T13:38:09.148Z,1.1
2022-09-05T13:38:26.586Z,1.4
2022-09-05T13:38:50.338Z,1.4
2022-09-05T13:40:50.404Z,1.3
2022-09-05T13:42:50.037Z,1.5
2022-09-05T13:44:50.047Z,1.5
2022-09-05T13:46:52.658Z,2.2
2022-09-05T13:50:50.307Z,1.9
2022-09-05T13:52:50.367Z,1.2
2022-09-05T13:54:51.362Z,1.2
2022-09-05T13:56:49.943Z,1.1
2022-09-05T13:58:56.939Z,1.4
2022-09-05T14:00:49.565Z,1.4
2022-09-05T14:05:08.231Z,1.4
2022-09-05T14:06:49.621Z,1.3
2022-09-05T14:09:34.960Z,13.9
2022-09-05T14:10:49.871Z,1.5
2022-09-05T14:12:49.754Z,1.7
2022-09-05T14:15:10.690Z,1.7
2022-09-05T14:16:50.688Z,1.4
2022-09-05T14:18:52.529Z,1.7
2022-09-05T14:20:50.192Z,2.1
2022-09-05T14:22:50.699Z,1.3
2022-09-05T14:24:52.920Z,1.3
2022-09-05T14:26:50.421Z,1.4
2022-09-05T14:28:49.636Z,1.3
2022-09-05T14:31:38.740Z,1.6
2022-09-05T14:37:37.689Z,1.2
2022-09-05T14:37:37.814Z,1.6
2022-09-05T14:37:47.557Z,1.4
2022-09-05T14:38:51.021Z,1.6
2022-09-05T14:40:50.425Z,1.4
2022-09-05T14:42:49.890Z,1.4
2022-09-05T14:44:49.895Z,2.2
2022-09-05T14:46:50.486Z,1.3
2022-09-05T14:48:53.242Z,1.4
2022-09-05T14:50:49.684Z,1.3
2022-09-05T14:52:50.110Z,1.3
2022-09-05T14:55:19.904Z,1.3
2022-09-05T14:57:24.160Z,1.2
2022-09-05T15:02:20.637Z,1.3
2022-09-05T15:02:47.578Z,1.4
2022-09-05T15:04:50.194Z,1.3
2022-09-05T15:06:50.532Z,1.6
2022-09-05T15:10:07.745Z,1.5
2022-09-05T15:11:25.107Z,1.8
2022-09-05T15:12:51.917Z,1.8
2022-09-05T15:14:50.542Z,1.5
2022-09-05T15:16:50.325Z,1.4
2022-09-05T15:18:49.687Z,1.6
2022-09-05T15:20:49.576Z,2.2
2022-09-05T15:22:53.173Z,2.2
2022-09-05T15:24:50.159Z,1.6
2022-09-05T15:26:52.923Z,1.6
2022-09-05T15:28:49.839Z,3.9
2022-09-05T15:30:50.420Z,1.5
2022-09-05T15:32:50.968Z,1.5
2022-09-05T15:34:50.238Z,1.6
2022-09-05T15:36:50.479Z,1.5
2022-09-05T15:38:55.547Z,1.5
2022-09-05T15:40:49.663Z,4.1
2022-09-05T15:42:49.659Z,1.5
2022-09-05T15:45:06.662Z,1.3
2022-09-05T15:46:50.046Z,1.6
2022-09-05T15:48:50.542Z,1.6
2022-09-05T15:50:50.502Z,1.6
2022-09-05T15:52:52.629Z,1.5
2022-09-05T15:54:49.898Z,1.3
2022-09-05T15:56:50.134Z,1.9
2022-09-05T15:58:52.955Z,1.9
2022-09-05T16:00:51.729Z,1.5
2022-09-05T16:02:59.632Z,1.4
2022-09-05T16:06:56.600Z,1.8
2022-09-05T16:10:32.325Z,1.7
2022-09-05T16:10:44.088Z,1.7
2022-09-05T16:10:55.905Z,1.8
2022-09-05T16:12:49.837Z,1.8
2022-09-05T16:14:52.851Z,1.8
2022-09-05T16:19:00.161Z,1.9
2022-09-05T16:23:12.491Z,2.3
2022-09-05T16:23:22.150Z,2.3
2022-09-05T16:23:22.294Z,1.9
2022-09-05T16:24:58.756Z,1.9
2022-09-05T16:26:50.539Z,1.9
2022-09-05T16:28:49.616Z,1.9
2022-09-05T16:30:49.799Z,2.0
2022-09-05T16:32:51.078Z,1.7
2022-09-05T16:34:50.487Z,2.0
2022-09-05T16:36:54.756Z,2.0
2022-09-05T16:38:50.566Z,1.9
2022-09-05T16:40:49.695Z,1.7
2022-09-05T16:42:50.544Z,2.0
2022-09-05T16:44:50.525Z,1.8
2022-09-05T16:46:49.839Z,1.8
2022-09-05T16:48:50.096Z,1.7
2022-09-05T16:50:50.645Z,2.2
2022-09-05T16:52:53.861Z,1.9
2022-09-05T16:54:50.131Z,2.0
2022-09-05T16:56:50.316Z,2.0
2022-09-05T16:58:50.412Z,2.1
2022-09-05T17:00:50.325Z,2.1
2022-09-05T17:02:50.507Z,2.0
2022-09-05T17:05:03.828Z,2.2
2022-09-05T17:06:49.555Z,2.2
2022-09-05T17:08:50.387Z,2.0
2022-09-05T17:10:57.345Z,2.0
2022-09-05T17:12:50.145Z,2.7
2022-09-05T17:14:50.079Z,2.7
2022-09-05T17:16:50.394Z,2.3
2022-09-05T17:18:49.844Z,2.0
2022-09-05T17:20:50.065Z,2.0
2022-09-05T17:26:04.588Z,2.6
2022-09-05T17:28:24.141Z,1.8
2022-09-05T17:29:22.093Z,1.9
2022-09-05T17:29:37.276Z,1.8
2022-09-05T17:31:40.959Z,1.7
2022-09-05T17:32:50.269Z,1.7
2022-09-05T17:34:50.043Z,1.7
2022-09-05T17:36:50.502Z,1.7
2022-09-05T17:38:50.311Z,2.0
2022-09-05T17:40:50.346Z,4.0
2022-09-05T17:42:49.646Z,2.3
2022-09-05T17:44:50.617Z,2.3
2022-09-05T17:46:49.641Z,2.6
2022-09-05T17:49:16.220Z,4.5
2022-09-05T17:50:50.347Z,4.4
2022-09-05T17:52:49.902Z,4.4
2022-09-05T17:54:50.527Z,3.3
2022-09-05T17:56:50.036Z,3.2
2022-09-05T17:58:50.587Z,2.7
2022-09-05T18:00:49.787Z,2.4
2022-09-05T18:02:49.659Z,2.9
2022-09-05T18:04:50.283Z,2.5
2022-09-05T18:06:55.405Z,2.5
2022-09-05T18:08:50.031Z,2.8
2022-09-05T18:10:50.373Z,2.8
2022-09-05T18:13:14.443Z,2.6
2022-09-05T18:14:50.210Z,3.1
2022-09-05T18:16:55.007Z,3.1
2022-09-05T18:20:49.756Z,2.9
2022-09-05T18:22:56.894Z,3.1
2022-09-05T18:24:50.082Z,3.1
2022-09-05T18:26:52.568Z,2.6
2022-09-05T18:28:49.631Z,2.5
2022-09-05T18:30:49.600Z,2.5
2022-09-05T18:32:53.433Z,2.7
2022-09-05T18:34:50.012Z,2.7
2022-09-05T18:36:50.278Z,2.5
2022-09-05T18:38:50.765Z,2.7
2022-09-05T18:40:49.735Z,2.8
2022-09-05T18:42:49.846Z,2.8
2022-09-05T18:44:49.931Z,3.3
2022-09-05T18:46:50.008Z,3.1
2022-09-05T18:48:55.560Z,3.7
2022-09-05T18:50:49.936Z,3.0
2022-09-05T18:52:49.884Z,3.0
2022-09-05T18:54:51.813Z,3.4
2022-09-05T18:57:12.326Z,2.8
2022-09-05T18:58:51.482Z,4.4
2022-09-05T19:00:50.543Z,4.4
2022-09-05T19:02:51.664Z,2.9
2022-09-05T19:04:50.443Z,2.9
2022-09-05T19:06:49.956Z,2.9
2022-09-05T19:08:49.933Z,2.8
2022-09-05T19:10:50.084Z,2.8
2022-09-05T19:12:52.498Z,3.3
2022-09-05T19:14:49.850Z,2.8
2022-09-05T19:16:50.553Z,2.8
2022-09-05T19:18:49.848Z,2.8
2022-09-05T19:20:49.673Z,2.8
2022-09-05T19:23:09.335Z,3.3
2022-09-05T19:24:50.554Z,3.3
2022-09-05T19:26:56.864Z,3.2
2022-09-05T19:34:05.803Z,3.2
2022-09-05T19:36:42.511Z,3.1
2022-09-05T19:37:00.181Z,3.1
2022-09-05T19:37:01.960Z,3.3
2022-09-05T19:39:18.310Z,3.2
2022-09-05T19:43:01.255Z,3.2
2022-09-05T19:46:19.025Z,3.3
2022-09-05T19:47:31.961Z,3.4
2022-09-05T19:47:45.695Z,4.4
2022-09-05T19:48:49.611Z,3.1
2022-09-05T19:50:49.661Z,3.1
2022-09-05T19:52:49.661Z,2.9
2022-09-05T19:54:49.678Z,3.0
2022-09-05T19:56:50.043Z,2.6
2022-09-05T19:58:50.239Z,2.8
2022-09-05T20:00:50.389Z,2.8
2022-09-05T20:02:51.463Z,2.8
2022-09-05T20:04:53.121Z,2.6
2022-09-05T20:06:49.829Z,2.9
2022-09-05T20:08:49.866Z,2.9
2022-09-05T20:10:50.077Z,2.9
2022-09-05T20:12:49.814Z,3.2
2022-09-05T20:14:49.816Z,2.8
2022-09-05T20:16:50.391Z,3.0
2022-09-05T20:18:49.830Z,3.0
2022-09-05T20:20:51.130Z,3.3
2022-09-05T20:22:50.969Z,3.3
2022-09-05T20:24:50.217Z,3.3
2022-09-05T20:26:49.918Z,3.4
2022-09-05T20:28:54.048Z,3.4
2022-09-05T20:30:49.798Z,2.7
2022-09-05T20:32:49.931Z,3.0
2022-09-05T20:35:39.420Z,3.1
2022-09-05T20:41:32.159Z,3.3
2022-09-05T20:43:13.615Z,2.8
2022-09-05T20:43:25.648Z,2.9
2022-09-05T20:43:26.008Z,2.9
2022-09-05T20:44:50.129Z,3.0
2022-09-05T20:49:00.862Z,3.3
2022-09-05T20:54:11.937Z,3.1
2022-09-05T20:54:12.137Z,3.1
2022-09-05T20:54:23.991Z,3.1
2022-09-05T20:54:50.300Z,3.3
2022-09-05T20:56:54.934Z,3.0
2022-09-05T20:58:49.799Z,3.0
2022-09-05T21:01:15.805Z,2.8
2022-09-05T21:02:49.981Z,2.8
2022-09-05T21:04:50.260Z,2.9
2022-09-05T21:06:49.716Z,3.0
2022-09-05T21:08:49.713Z,3.0
2022-09-05T21:10:50.424Z,3.0
2022-09-05T21:12:49.617Z,2.7
2022-09-05T21:14:49.608Z,3.6
2022-09-05T21:16:49.969Z,3.6
2022-09-05T21:18:50.342Z,3.0
2022-09-05T21:20:50.541Z,3.0
2022-09-05T21:22:50.548Z,2.8
2022-09-05T21:24:50.396Z,2.9
2022-09-05T21:26:49.964Z,2.9
2022-09-05T21:28:50.203Z,2.9
2022-09-05T21:30:50.394Z,3.0
2022-09-05T21:32:49.622Z,3.2
2022-09-05T21:34:50.054Z,3.2
2022-09-05T21:36:49.897Z,3.1
2022-09-05T21:38:49.580Z,3.1
2022-09-05T21:40:52.661Z,2.9
2022-09-05T21:44:32.186Z,3.3
2022-09-05T21:47:36.294Z,3.3
2022-09-05T21:47:36.965Z,3.7
2022-09-05T21:48:49.702Z,3.6
2022-09-05T21:50:50.011Z,3.0
2022-09-05T21:53:00.286Z,3.2
2022-09-05T21:57:53.698Z,3.2
2022-09-05T21:59:23.688Z,3.1
2022-09-05T21:59:23.886Z,3.1
2022-09-05T22:00:50.102Z,3.2
2022-09-05T22:02:50.228Z,3.1
2022-09-05T22:04:49.965Z,3.1
2022-09-05T22:06:50.093Z,3.2
2022-09-05T22:08:51.207Z,3.4
2022-09-05T22:10:51.409Z,3.2
2022-09-05T22:12:50.194Z,3.0
2022-09-05T22:14:50.236Z,3.0
2022-09-05T22:16:49.682Z,3.7
2022-09-05T22:18:50.119Z,2.8
2022-09-05T22:20:51.179Z,3.3
2022-09-05T22:22:56.189Z,3.8
2022-09-05T22:24:49.793Z,3.8
2022-09-05T22:27:10.985Z,3.4
2022-09-05T22:28:49.927Z,3.3
2022-09-05T22:30:50.044Z,3.6
2022-09-05T22:32:50.334Z,3.6
2022-09-05T22:34:49.642Z,3.2
2022-09-05T22:36:49.749Z,3.2
2022-09-05T22:38:50.044Z,3.3
2022-09-05T22:40:50.058Z,3.4
2022-09-05T22:42:50.093Z,3.4
2022-09-05T22:44:50.230Z,3.5
2022-09-05T22:46:49.849Z,3.4
2022-09-05T22:48:49.946Z,3.4
2022-09-05T22:50:49.868Z,3.4
2022-09-05T22:52:49.783Z,3.4
2022-09-05T22:54:49.773Z,3.2
2022-09-05T22:56:50.458Z,3.1
2022-09-05T22:58:49.560Z,3.1
2022-09-05T23:00:50.507Z,3.5
2022-09-05T23:02:52.542Z,3.5
2022-09-05T23:04:50.451Z,3.6
2022-09-05T23:06:49.832Z,3.7
2022-09-05T23:08:49.898Z,3.1
2022-09-05T23:10:49.923Z,3.1
2022-09-05T23:12:50.141Z,3.6
2022-09-05T23:14:50.414Z,3.6
2022-09-05T23:16:49.909Z,3.7
2022-09-05T23:18:49.946Z,3.1
2022-09-05T23:20:50.070Z,3.3
2022-09-05T23:22:49.924Z,3.3
2022-09-05T23:24:50.126Z,2.9
2022-09-05T23:26:50.513Z,3.2
2022-09-05T23:28:49.582Z,3.2
2022-09-05T23:30:49.593Z,3.1
2022-09-05T23:32:49.746Z,3.1
2022-09-05T23:34:50.257Z,3.2
2022-09-05T23:36:49.605Z,3.2
2022-09-05T23:38:49.646Z,3.1
2022-09-05T23:40:50.536Z,3.1
2022-09-05T23:42:50.522Z,3.2
2022-09-05T23:44:50.529Z,3.0
2022-09-05T23:46:49.666Z,2.8
2022-09-05T23:48:49.632Z,2.8
2022-09-05T23:50:49.598Z,3.7
2022-09-05T23:52:49.822Z,3.3
2022-09-05T23:54:49.746Z,3.3
2022-09-05T23:56:50.272Z,3.3
2022-09-05T23:58:50.254Z,3.3
